Terminal Aerodrome Forecast
Issued by NWS

Home | Current Version | Previous Version | Text Only | Print | Product List | Glossary On
Versions: 1 2 3 4 5 6 7 8 9 10 11 12 13 14 15 16 17 18 19 20 21 22 23 24 25 26 27 28 29 30 31 32 33 34 35 36 37 38 39 40 41 42 43
000
FTAK31 PANC 251601 AAB
TAFAHO
TAF AMD
PAHO 251601Z 2516/2612 VRB03KT P6SM OVC035
      TEMPO 2516/2518 BKN025
     FM252100 26006KT P6SM -RA SCT035 OVC050
     FM260300 VRB04KT P6SM SCT050 BKN080=

USA.gov is the U.S. government's official web portal to all federal, state and local government web resources and services.